Terminal Aerodrome Forecast
Issued by NWS Melbourne, FL

Home | Current Version | Previous Version | Text Only | Print | Product List | Glossary On
Versions: 1 2 3 4 5 6 7 8 9 10 11 12 13 14 15 16 17 18 19 20 21 22 23 24 25 26 27 28 29
060
FTUS42 KMLB 261727
TAFMCO
TAF
KMCO 261727Z 2618/2718 VRB04KT P6SM VCSH SCT040 BKN100
      TEMPO 2618/2620 3SM TSRA BKN030CB
     FM270000 VRB03KT P6SM FEW030 SCT120 BKN250
     FM271400 23005KT P6SM SCT025=

USA.gov is the U.S. government's official web portal to all federal, state and local government web resources and services.